WetterOnline ( http://www.wetteronline.de )

Wetter aktuell Büren

Aktuelles Wetter: Bad Lippspringe (158m)

6-stündlich | Neueste Meldungen
Ortszeit Temperatur Wetter
Mi, 18.07. 8:00 16.0° C wolkenlos
Mi, 18.07. 2:00 19.9° C bewölkt
Di, 17.07. 20:00 27.2° C leicht bewölkt
Di, 17.07. 14:00 29.2° C leicht bewölkt
Di, 17.07. 8:00 19.4° C leicht bewölkt
Di, 17.07. 2:00 15.2° C wolkig
Mo, 16.07. 20:00 26.8° C wolkenlos
Mo, 16.07. 14:00 27.4° C wolkenlos
Ortszeit Temperatur Wetter
Mi, 18.07. 12:30 21.8° C bewölkt
Mi, 18.07. 12:10 22.1° C bewölkt
Mi, 18.07. 12:00 21.7° C wolkig
Mi, 18.07. 11:50 21.7° C wolkig
Mi, 18.07. 11:40 22.0° C bedeckt
Mi, 18.07. 11:30 21.0° C wolkenlos
Mi, 18.07. 11:00 20.4° C fast wolkenlos
Mi, 18.07. 10:30 20.0° C fast wolkenlos
Mi, 18.07. 10:00 19.0° C fast wolkenlos
Mi, 18.07. 9:30 18.1° C wolkenlos
Ortszeit Relative Feuchte Sichtweite
Mi, 18.07. 8:00 78% 13 km
Mi, 18.07. 2:00 70% 28 km
Di, 17.07. 20:00 34% 21 km
Di, 17.07. 14:00 30% 13 km
Di, 17.07. 8:00 71% 24 km
Di, 17.07. 2:00 85% 26 km
Mo, 16.07. 20:00 36% 30 km
Mo, 16.07. 14:00 34% 17 km
Ortszeit Relative Feuchte Sichtweite
Mi, 18.07. 12:30 49% 30 km
Mi, 18.07. 12:10 45% -
Mi, 18.07. 12:00 49% 17 km
Mi, 18.07. 11:50 49% -
Mi, 18.07. 11:40 50% -
Mi, 18.07. 11:30 51% 15 km
Mi, 18.07. 11:00 55% 15 km
Mi, 18.07. 10:30 56% 16 km
Mi, 18.07. 10:00 61% 13 km
Mi, 18.07. 9:30 67% 13 km
Ortszeit Niederschlagsmenge Niederschlagsart
Mi, 18.07. 8:00 0.0 l/m2 in 12 Std. -
Mi, 18.07. 2:00 0.0 l/m2 in 6 Std. -
Di, 17.07. 20:00 0.0 l/m2 in 12 Std. -
Di, 17.07. 14:00 0.0 l/m2 in 6 Std. -
Di, 17.07. 8:00 0.0 l/m2 in 12 Std. -
Di, 17.07. 2:00 0.0 l/m2 in 6 Std. -
Mo, 16.07. 20:00 0.0 l/m2 in 12 Std. -
Mo, 16.07. 14:00 0.0 l/m2 in 6 Std. -
Ortszeit Niederschlagsmenge Niederschlagsart
Mi, 18.07. 12:30 0.0 l/m2 in 1 Std. -
Mi, 18.07. 12:10 keine Meldung -
Mi, 18.07. 12:00 0.0 l/m2 in 1 Std. -
Mi, 18.07. 11:50 keine Meldung -
Mi, 18.07. 11:40 keine Meldung -
Mi, 18.07. 11:30 0.0 l/m2 in 1 Std. -
Mi, 18.07. 11:00 0.0 l/m2 in 1 Std. -
Mi, 18.07. 10:30 0.0 l/m2 in 1 Std. -
Mi, 18.07. 10:00 0.0 l/m2 in 1 Std. -
Mi, 18.07. 9:30 0.0 l/m2 in 1 Std. -
Ortszeit Stärke Spitze Richtung
km/h Bft. km/h Grad Sektor
Mi, 18.07. 8:00 7 2 22 270° W
Mi, 18.07. 2:00 7 2 29 320° NW
Di, 17.07. 20:00 18 3 32 270° W
Di, 17.07. 14:00 15 3 35 250° W
Di, 17.07. 8:00 0 0 7 - -
Di, 17.07. 2:00 4 1 18 160° S
Mo, 16.07. 20:00 13 3 28 20° N
Mo, 16.07. 14:00 4 1 32 360° N
Ortszeit Stärke Spitze Richtung
km/h Bft. km/h Grad Sektor
Mi, 18.07. 12:30 9 2 20 310° NW
Mi, 18.07. 12:10 9 2 - 330° NW
Mi, 18.07. 12:00 11 2 25 280° W
Mi, 18.07. 11:50 11 2 - 280° W
Mi, 18.07. 11:40 11 2 - 290° W
Mi, 18.07. 11:30 13 3 26 270° W
Mi, 18.07. 11:00 13 3 22 280° W
Mi, 18.07. 10:30 11 2 22 290° W
Mi, 18.07. 10:00 13 3 22 290° W
Mi, 18.07. 9:30 11 2 18 280° W
Ortszeit Untergrenze Bedeckung Gattung
total tief tief mittel hoch
Mi, 18.07. 8:00 - 0/8 0/8 - - -
Mi, 18.07. 2:00 1290 m 7/8 7/8 - - -
Di, 17.07. 20:00 2100 m 2/8 1/8 - - -
Di, 17.07. 14:00 8400 m 8/8 0/8 - - -
Di, 17.07. 8:00 9000 m 5/8 0/8 - - -
Di, 17.07. 2:00 7200 m 8/8 0/8 - - -
Mo, 16.07. 20:00 - 0/8 0/8 - - -
Mo, 16.07. 14:00 - 0/8 0/8 - - -
Ortszeit Bedeckungsgrad in Achtel und Wolkenuntergrenze
Mi, 18.07. 12:30 4(1380m) 7(1500m)
Mi, 18.07. 12:10 3(1320m) 7(1500m)
Mi, 18.07. 12:00 4(1290m) 5(1500m)
Mi, 18.07. 11:50 4(1290m) 5(1500m)
Mi, 18.07. 11:40 9 9 9
Mi, 18.07. 11:30 9 9 9
Mi, 18.07. 11:00 1(1800m)
Mi, 18.07. 10:30 1(1800m)
Mi, 18.07. 10:00 1(1800m)
Mi, 18.07. 9:30 keine Wolken
Ortszeit Luftdruck NN (hPa) Tendenz (hPa in 3 Std.)
Mi, 18.07. 8:00 1019 + 1,0
Mi, 18.07. 2:00 1017 + 1,6
Di, 17.07. 20:00 1013 0,0
Di, 17.07. 14:00 1013 0,0
Di, 17.07. 8:00 1014 + 0,7
Di, 17.07. 2:00 1013 + 0,5
Mo, 16.07. 20:00 1011 - 0,5
Mo, 16.07. 14:00 1013 - 1,0
Ortszeit Luftdruck NN (hPa) Tendenz (hPa in 3 Std.)
Mi, 18.07. 12:30 1018 - 0,2
Mi, 18.07. 12:10 1018 keine Meldung
Mi, 18.07. 12:00 1018 - 0,1
Mi, 18.07. 11:50 1018 keine Meldung
Mi, 18.07. 11:40 1018 keine Meldung
Mi, 18.07. 11:30 1019 0,0
Mi, 18.07. 11:00 1018 - 0,1
Mi, 18.07. 10:30 1019 + 0,3
Mi, 18.07. 10:00 1019 + 0,6
Mi, 18.07. 9:30 1019 + 0,6
Ortszeit Schneehöhe (cm)
Mi, 18.07. 8:00 -
Mi, 18.07. 2:00 -
Di, 17.07. 20:00 -
Di, 17.07. 14:00 -
Di, 17.07. 8:00 -
Di, 17.07. 2:00 -
Mo, 16.07. 20:00 -
Mo, 16.07. 14:00 -
Ortszeit Schneehöhe (cm)
Mi, 18.07. 12:30 -
Mi, 18.07. 12:10 -
Mi, 18.07. 12:00 -
Mi, 18.07. 11:50 -
Mi, 18.07. 11:40 -
Mi, 18.07. 11:30 -
Mi, 18.07. 11:00 -
Mi, 18.07. 10:30 -
Mi, 18.07. 10:00 -
Mi, 18.07. 9:30 -
Link zu dieser Seite / Seite empfehlen

Das Wetter in ...